sensor_id;sensor_type;location;lat;lon;timestamp;pressure;altitude;pressure_sealevel;temperature;humidity
34925;BME280;21130;51.728;8.748;2022-11-15T00:01:51;99891.19;;;8.99;100.00
34925;BME280;21130;51.728;8.748;2022-11-15T00:04:18;99895.63;;;9.00;100.00
34925;BME280;21130;51.728;8.748;2022-11-15T00:06:44;99889.13;;;9.06;100.00
34925;BME280;21130;51.728;8.748;2022-11-15T00:09:11;99892.28;;;8.98;100.00
34925;BME280;21130;51.728;8.748;2022-11-15T00:11:37;99883.41;;;8.96;100.00
34925;BME280;21130;51.728;8.748;2022-11-15T00:14:04;99887.25;;;8.95;100.00
34925;BME280;21130;51.728;8.748;2022-11-15T00:16:30;99880.03;;;8.94;100.00
34925;BME280;21130;51.728;8.748;2022-11-15T00:18:58;99886.09;;;8.91;100.00
34925;BME280;21130;51.728;8.748;2022-11-15T00:21:25;99881.38;;;8.91;100.00
34925;BME280;21130;51.728;8.748;2022-11-15T00:23:52;99888.94;;;8.96;100.00
34925;BME280;21130;51.728;8.748;2022-11-15T00:26:18;99879.44;;;8.92;100.00
34925;BME280;21130;51.728;8.748;2022-11-15T00:28:45;99874.59;;;8.99;100.00
34925;BME280;21130;51.728;8.748;2022-11-15T00:31:13;99879.38;;;9.03;100.00
34925;BME280;21130;51.728;8.748;2022-11-15T00:33:42;99881.78;;;9.00;100.00
34925;BME280;21130;51.728;8.748;2022-11-15T00:36:11;99886.16;;;9.13;100.00
34925;BME280;21130;51.728;8.748;2022-11-15T00:38:39;99886.00;;;9.19;100.00
34925;BME280;21130;51.728;8.748;2022-11-15T00:41:07;99885.34;;;9.29;100.00
34925;BME280;21130;51.728;8.748;2022-11-15T00:43:34;99882.81;;;9.27;100.00
34925;BME280;21130;51.728;8.748;2022-11-15T00:46:01;99872.41;;;9.35;100.00
34925;BME280;21130;51.728;8.748;2022-11-15T00:48:28;99872.78;;;9.38;100.00
34925;BME280;21130;51.728;8.748;2022-11-15T00:50:55;99865.09;;;9.45;100.00
34925;BME280;21130;51.728;8.748;2022-11-15T00:53:23;99862.34;;;9.45;100.00
34925;BME280;21130;51.728;8.748;2022-11-15T00:55:49;99870.16;;;9.48;100.00
34925;BME280;21130;51.728;8.748;2022-11-15T00:58:16;99866.53;;;9.48;100.00
34925;BME280;21130;51.728;8.748;2022-11-15T01:00:42;99857.06;;;9.44;100.00
34925;BME280;21130;51.728;8.748;2022-11-15T01:03:09;99856.56;;;9.47;100.00
34925;BME280;21130;51.728;8.748;2022-11-15T01:05:36;99849.44;;;9.51;100.00
34925;BME280;21130;51.728;8.748;2022-11-15T01:08:03;99850.56;;;9.55;100.00
34925;BME280;21130;51.728;8.748;2022-11-15T01:10:31;99844.13;;;9.49;100.00
34925;BME280;21130;51.728;8.748;2022-11-15T01:12:58;99842.78;;;9.52;100.00
34925;BME280;21130;51.728;8.748;2022-11-15T01:15:24;99836.06;;;9.48;100.00
34925;BME280;21130;51.728;8.748;2022-11-15T01:17:51;99826.53;;;9.39;100.00
34925;BME280;21130;51.728;8.748;2022-11-15T01:20:18;99822.66;;;9.40;100.00
34925;BME280;21130;51.728;8.748;2022-11-15T01:22:45;99826.84;;;9.42;100.00
34925;BME280;21130;51.728;8.748;2022-11-15T01:25:12;99816.53;;;9.38;100.00
34925;BME280;21130;51.728;8.748;2022-11-15T01:27:40;99819.50;;;9.31;100.00
34925;BME280;21130;51.728;8.748;2022-11-15T01:30:07;99817.53;;;9.32;100.00
34925;BME280;21130;51.728;8.748;2022-11-15T01:32:34;99820.91;;;9.34;100.00
34925;BME280;21130;51.728;8.748;2022-11-15T01:35:00;99813.69;;;9.33;100.00
34925;BME280;21130;51.728;8.748;2022-11-15T01:37:27;99814.69;;;9.26;100.00
34925;BME280;21130;51.728;8.748;2022-11-15T01:39:54;99814.03;;;9.19;100.00
34925;BME280;21130;51.728;8.748;2022-11-15T01:42:20;99829.31;;;9.22;100.00
34925;BME280;21130;51.728;8.748;2022-11-15T01:44:49;99815.63;;;9.15;100.00
34925;BME280;21130;51.728;8.748;2022-11-15T01:47:20;99824.44;;;9.12;100.00
34925;BME280;21130;51.728;8.748;2022-11-15T01:49:52;99823.00;;;9.09;100.00
34925;BME280;21130;51.728;8.748;2022-11-15T01:52:22;99820.00;;;9.11;100.00
34925;BME280;21130;51.728;8.748;2022-11-15T01:54:53;99819.66;;;9.07;100.00
34925;BME280;21130;51.728;8.748;2022-11-15T01:57:22;99816.31;;;9.05;100.00
34925;BME280;21130;51.728;8.748;2022-11-15T01:59:50;99814.31;;;9.01;100.00
34925;BME280;21130;51.728;8.748;2022-11-15T02:02:17;99812.78;;;8.93;100.00
34925;BME280;21130;51.728;8.748;2022-11-15T02:04:45;99815.47;;;8.88;100.00
34925;BME280;21130;51.728;8.748;2022-11-15T02:07:15;99815.28;;;8.95;100.00
34925;BME280;21130;51.728;8.748;2022-11-15T02:09:43;99813.72;;;8.99;100.00
34925;BME280;21130;51.728;8.748;2022-11-15T02:12:12;99814.31;;;9.01;100.00
34925;BME280;21130;51.728;8.748;2022-11-15T02:14:42;99815.13;;;9.01;100.00
34925;BME280;21130;51.728;8.748;2022-11-15T02:17:23;99807.16;;;9.05;100.00
34925;BME280;21130;51.728;8.748;2022-11-15T02:20:32;99804.66;;;9.03;100.00
34925;BME280;21130;51.728;8.748;2022-11-15T02:26:30;99814.06;;;8.85;100.00
34925;BME280;21130;51.728;8.748;2022-11-15T02:29:05;99810.09;;;8.81;100.00
34925;BME280;21130;51.728;8.748;2022-11-15T02:31:41;99821.31;;;8.75;100.00
34925;BME280;21130;51.728;8.748;2022-11-15T02:34:19;99817.28;;;8.65;100.00
34925;BME280;21130;51.728;8.748;2022-11-15T02:36:59;99813.47;;;8.55;100.00
34925;BME280;21130;51.728;8.748;2022-11-15T02:39:34;99817.84;;;8.51;100.00
34925;BME280;21130;51.728;8.748;2022-11-15T02:42:07;99809.94;;;8.42;100.00
34925;BME280;21130;51.728;8.748;2022-11-15T02:44:56;99808.66;;;8.33;100.00
34925;BME280;21130;51.728;8.748;2022-11-15T02:47:27;99805.09;;;8.21;100.00
34925;BME280;21130;51.728;8.748;2022-11-15T02:49:59;99795.16;;;8.08;100.00
34925;BME280;21130;51.728;8.748;2022-11-15T02:52:27;99791.59;;;7.96;100.00
34925;BME280;21130;51.728;8.748;2022-11-15T02:54:54;99792.94;;;7.93;100.00
34925;BME280;21130;51.728;8.748;2022-11-15T02:57:31;99786.59;;;7.81;100.00
34925;BME280;21130;51.728;8.748;2022-11-15T03:00:05;99776.66;;;7.80;100.00
34925;BME280;21130;51.728;8.748;2022-11-15T03:02:42;99783.50;;;7.77;100.00
34925;BME280;21130;51.728;8.748;2022-11-15T03:05:19;99787.09;;;7.78;100.00
34925;BME280;21130;51.728;8.748;2022-11-15T03:07:54;99782.91;;;7.75;100.00
34925;BME280;21130;51.728;8.748;2022-11-15T03:10:26;99777.41;;;7.92;100.00
34925;BME280;21130;51.728;8.748;2022-11-15T03:12:58;99775.75;;;8.20;100.00
34925;BME280;21130;51.728;8.748;2022-11-15T03:15:28;99775.69;;;8.43;100.00
34925;BME280;21130;51.728;8.748;2022-11-15T03:18:01;99779.22;;;8.56;100.00
34925;BME280;21130;51.728;8.748;2022-11-15T03:20:28;99774.38;;;8.63;100.00
34925;BME280;21130;51.728;8.748;2022-11-15T03:23:00;99782.94;;;8.78;100.00
34925;BME280;21130;51.728;8.748;2022-11-15T03:25:32;99768.09;;;8.84;100.00
34925;BME280;21130;51.728;8.748;2022-11-15T03:28:01;99775.31;;;8.85;100.00
34925;BME280;21130;51.728;8.748;2022-11-15T03:30:30;99767.66;;;8.93;100.00
34925;BME280;21130;51.728;8.748;2022-11-15T03:33:00;99774.44;;;8.85;100.00
34925;BME280;21130;51.728;8.748;2022-11-15T03:35:32;99766.31;;;8.95;100.00
34925;BME280;21130;51.728;8.748;2022-11-15T03:38:06;99759.84;;;8.90;100.00
34925;BME280;21130;51.728;8.748;2022-11-15T03:40:38;99763.97;;;8.87;100.00
34925;BME280;21130;51.728;8.748;2022-11-15T03:43:10;99754.59;;;8.71;100.00
34925;BME280;21130;51.728;8.748;2022-11-15T03:45:44;99748.88;;;8.61;100.00
34925;BME280;21130;51.728;8.748;2022-11-15T03:48:16;99747.63;;;8.52;100.00
34925;BME280;21130;51.728;8.748;2022-11-15T03:50:47;99755.97;;;8.40;100.00
34925;BME280;21130;51.728;8.748;2022-11-15T03:53:14;99756.63;;;8.30;100.00
34925;BME280;21130;51.728;8.748;2022-11-15T03:55:41;99757.91;;;8.39;100.00
34925;BME280;21130;51.728;8.748;2022-11-15T03:58:07;99757.94;;;8.56;100.00
34925;BME280;21130;51.728;8.748;2022-11-15T04:00:34;99764.16;;;8.63;100.00
34925;BME280;21130;51.728;8.748;2022-11-15T04:03:01;99766.25;;;8.73;100.00
34925;BME280;21130;51.728;8.748;2022-11-15T04:05:29;99756.84;;;8.74;100.00
34925;BME280;21130;51.728;8.748;2022-11-15T04:07:55;99753.94;;;8.81;100.00
34925;BME280;21130;51.728;8.748;2022-11-15T04:10:22;99758.34;;;8.65;100.00
34925;BME280;21130;51.728;8.748;2022-11-15T04:12:48;99757.34;;;8.54;100.00
34925;BME280;21130;51.728;8.748;2022-11-15T04:15:17;99760.91;;;8.38;100.00
34925;BME280;21130;51.728;8.748;2022-11-15T04:17:45;99759.28;;;8.54;100.00
34925;BME280;21130;51.728;8.748;2022-11-15T04:20:14;99771.03;;;8.61;100.00
34925;BME280;21130;51.728;8.748;2022-11-15T04:23:02;99762.72;;;8.78;100.00
34925;BME280;21130;51.728;8.748;2022-11-15T04:25:49;99768.94;;;8.68;100.00
34925;BME280;21130;51.728;8.748;2022-11-15T04:28:17;99773.88;;;8.66;100.00
34925;BME280;21130;51.728;8.748;2022-11-15T04:30:44;99768.25;;;8.61;100.00
34925;BME280;21130;51.728;8.748;2022-11-15T04:33:11;99767.00;;;8.69;100.00
34925;BME280;21130;51.728;8.748;2022-11-15T04:35:37;99765.63;;;8.54;100.00
34925;BME280;21130;51.728;8.748;2022-11-15T04:38:08;99760.13;;;8.88;100.00
34925;BME280;21130;51.728;8.748;2022-11-15T04:40:34;99765.81;;;8.81;100.00
34925;BME280;21130;51.728;8.748;2022-11-15T04:43:01;99772.34;;;9.09;100.00
34925;BME280;21130;51.728;8.748;2022-11-15T04:45:27;99762.34;;;9.25;100.00
34925;BME280;21130;51.728;8.748;2022-11-15T04:47:54;99765.53;;;9.34;100.00
34925;BME280;21130;51.728;8.748;2022-11-15T04:50:21;99763.22;;;9.47;100.00
34925;BME280;21130;51.728;8.748;2022-11-15T04:52:50;99757.94;;;9.68;100.00
34925;BME280;21130;51.728;8.748;2022-11-15T04:55:19;99754.53;;;9.83;100.00
34925;BME280;21130;51.728;8.748;2022-11-15T04:57:45;99758.41;;;9.82;100.00
34925;BME280;21130;51.728;8.748;2022-11-15T05:00:15;99753.97;;;9.81;100.00
34925;BME280;21130;51.728;8.748;2022-11-15T05:02:43;99750.97;;;9.87;100.00
34925;BME280;21130;51.728;8.748;2022-11-15T05:05:26;99746.66;;;9.97;100.00
34925;BME280;21130;51.728;8.748;2022-11-15T05:07:53;99737.09;;;10.09;100.00
34925;BME280;21130;51.728;8.748;2022-11-15T05:10:21;99736.69;;;10.23;100.00
34925;BME280;21130;51.728;8.748;2022-11-15T05:12:48;99733.97;;;10.28;100.00
34925;BME280;21130;51.728;8.748;2022-11-15T05:15:14;99717.69;;;10.31;100.00
34925;BME280;21130;51.728;8.748;2022-11-15T05:17:41;99738.81;;;10.37;100.00
34925;BME280;21130;51.728;8.748;2022-11-15T05:20:08;99742.44;;;10.43;100.00
34925;BME280;21130;51.728;8.748;2022-11-15T05:22:35;99740.78;;;10.42;100.00
34925;BME280;21130;51.728;8.748;2022-11-15T05:25:02;99755.53;;;10.48;100.00
34925;BME280;21130;51.728;8.748;2022-11-15T05:27:30;99753.72;;;10.58;100.00
34925;BME280;21130;51.728;8.748;2022-11-15T05:29:57;99757.03;;;10.60;100.00
34925;BME280;21130;51.728;8.748;2022-11-15T05:32:24;99748.44;;;10.57;100.00
34925;BME280;21130;51.728;8.748;2022-11-15T05:34:51;99762.84;;;10.54;100.00
34925;BME280;21130;51.728;8.748;2022-11-15T05:37:17;99750.84;;;10.48;100.00
34925;BME280;21130;51.728;8.748;2022-11-15T05:39:44;99755.25;;;10.44;100.00
34925;BME280;21130;51.728;8.748;2022-11-15T05:42:12;99751.84;;;10.37;100.00
34925;BME280;21130;51.728;8.748;2022-11-15T05:44:43;99758.03;;;10.22;100.00
34925;BME280;21130;51.728;8.748;2022-11-15T05:47:13;99753.78;;;10.14;100.00
34925;BME280;21130;51.728;8.748;2022-11-15T05:49:44;99758.69;;;10.07;100.00
34925;BME280;21130;51.728;8.748;2022-11-15T05:52:14;99752.22;;;9.97;100.00
34925;BME280;21130;51.728;8.748;2022-11-15T05:54:42;99754.59;;;9.88;100.00
34925;BME280;21130;51.728;8.748;2022-11-15T05:57:09;99752.63;;;9.83;100.00
34925;BME280;21130;51.728;8.748;2022-11-15T05:59:36;99751.75;;;9.83;100.00
34925;BME280;21130;51.728;8.748;2022-11-15T06:02:03;99747.00;;;9.78;100.00
34925;BME280;21130;51.728;8.748;2022-11-15T06:04:30;99750.50;;;9.68;100.00
34925;BME280;21130;51.728;8.748;2022-11-15T06:06:58;99747.06;;;9.61;100.00
34925;BME280;21130;51.728;8.748;2022-11-15T06:09:25;99749.38;;;9.47;100.00
34925;BME280;21130;51.728;8.748;2022-11-15T06:11:51;99736.34;;;9.48;100.00
34925;BME280;21130;51.728;8.748;2022-11-15T06:14:18;99739.53;;;9.57;100.00
34925;BME280;21130;51.728;8.748;2022-11-15T06:16:44;99740.22;;;9.47;100.00
34925;BME280;21130;51.728;8.748;2022-11-15T06:19:12;99748.53;;;9.47;100.00
34925;BME280;21130;51.728;8.748;2022-11-15T06:21:39;99747.94;;;9.45;100.00
34925;BME280;21130;51.728;8.748;2022-11-15T06:24:06;99751.31;;;9.47;100.00
34925;BME280;21130;51.728;8.748;2022-11-15T06:26:33;99748.41;;;9.37;100.00
34925;BME280;21130;51.728;8.748;2022-11-15T06:28:59;99754.91;;;9.25;100.00
34925;BME280;21130;51.728;8.748;2022-11-15T06:31:26;99748.25;;;9.26;100.00
34925;BME280;21130;51.728;8.748;2022-11-15T06:33:53;99751.84;;;9.27;100.00
34925;BME280;21130;51.728;8.748;2022-11-15T06:36:21;99743.72;;;9.20;100.00
34925;BME280;21130;51.728;8.748;2022-11-15T06:38:47;99754.22;;;9.18;100.00
34925;BME280;21130;51.728;8.748;2022-11-15T06:41:14;99763.53;;;9.12;100.00
34925;BME280;21130;51.728;8.748;2022-11-15T06:43:42;99763.72;;;9.05;100.00
34925;BME280;21130;51.728;8.748;2022-11-15T06:46:08;99769.81;;;9.07;100.00
34925;BME280;21130;51.728;8.748;2022-11-15T06:48:35;99774.22;;;9.03;100.00
34925;BME280;21130;51.728;8.748;2022-11-15T06:57:18;99771.94;;;9.00;100.00
34925;BME280;21130;51.728;8.748;2022-11-15T06:59:44;99777.50;;;9.00;100.00
34925;BME280;21130;51.728;8.748;2022-11-15T07:02:12;99781.56;;;8.98;100.00
34925;BME280;21130;51.728;8.748;2022-11-15T07:04:39;99780.66;;;9.09;100.00
34925;BME280;21130;51.728;8.748;2022-11-15T07:07:06;99783.34;;;9.04;100.00
34925;BME280;21130;51.728;8.748;2022-11-15T07:09:32;99776.38;;;9.18;100.00
34925;BME280;21130;51.728;8.748;2022-11-15T07:11:59;99783.66;;;9.24;100.00
34925;BME280;21130;51.728;8.748;2022-11-15T07:14:27;99779.88;;;9.30;100.00
34925;BME280;21130;51.728;8.748;2022-11-15T07:16:53;99783.78;;;9.51;100.00
34925;BME280;21130;51.728;8.748;2022-11-15T07:19:20;99781.97;;;9.62;100.00
34925;BME280;21130;51.728;8.748;2022-11-15T07:21:46;99790.34;;;9.67;100.00
34925;BME280;21130;51.728;8.748;2022-11-15T07:24:13;99780.50;;;9.77;100.00
34925;BME280;21130;51.728;8.748;2022-11-15T07:26:39;99790.47;;;9.78;100.00
34925;BME280;21130;51.728;8.748;2022-11-15T07:29:06;99787.53;;;9.84;100.00
34925;BME280;21130;51.728;8.748;2022-11-15T07:31:34;99785.59;;;9.85;100.00
34925;BME280;21130;51.728;8.748;2022-11-15T07:34:01;99779.53;;;9.88;100.00
34925;BME280;21130;51.728;8.748;2022-11-15T07:36:27;99786.53;;;9.95;100.00
34925;BME280;21130;51.728;8.748;2022-11-15T07:38:54;99789.59;;;9.94;100.00
34925;BME280;21130;51.728;8.748;2022-11-15T07:41:20;99786.31;;;9.97;100.00
34925;BME280;21130;51.728;8.748;2022-11-15T07:43:47;99791.78;;;10.14;100.00
34925;BME280;21130;51.728;8.748;2022-11-15T07:46:17;99796.56;;;10.19;100.00
34925;BME280;21130;51.728;8.748;2022-11-15T07:48:45;99794.81;;;10.34;100.00
34925;BME280;21130;51.728;8.748;2022-11-15T07:51:12;99792.72;;;10.47;100.00
34925;BME280;21130;51.728;8.748;2022-11-15T07:53:39;99794.22;;;10.59;100.00
34925;BME280;21130;51.728;8.748;2022-11-15T07:56:06;99796.84;;;10.71;100.00
34925;BME280;21130;51.728;8.748;2022-11-15T07:58:34;99789.22;;;10.89;100.00
34925;BME280;21130;51.728;8.748;2022-11-15T08:01:02;99799.63;;;11.03;100.00
34925;BME280;21130;51.728;8.748;2022-11-15T08:03:29;99799.78;;;11.24;100.00
34925;BME280;21130;51.728;8.748;2022-11-15T08:05:57;99794.84;;;11.31;100.00
34925;BME280;21130;51.728;8.748;2022-11-15T08:08:23;99798.28;;;11.49;100.00
34925;BME280;21130;51.728;8.748;2022-11-15T08:10:50;99794.84;;;11.79;100.00
34925;BME280;21130;51.728;8.748;2022-11-15T08:13:16;99795.28;;;12.18;100.00
34925;BME280;21130;51.728;8.748;2022-11-15T08:15:43;99792.06;;;12.57;100.00
34925;BME280;21130;51.728;8.748;2022-11-15T08:18:11;99792.66;;;12.64;100.00
34925;BME280;21130;51.728;8.748;2022-11-15T08:20:38;99791.00;;;12.99;100.00
34925;BME280;21130;51.728;8.748;2022-11-15T08:23:07;99795.72;;;13.45;100.00
34925;BME280;21130;51.728;8.748;2022-11-15T08:25:34;99792.63;;;13.56;100.00
34925;BME280;21130;51.728;8.748;2022-11-15T08:28:03;99785.56;;;13.90;100.00
34925;BME280;21130;51.728;8.748;2022-11-15T08:30:33;99798.47;;;14.35;100.00
34925;BME280;21130;51.728;8.748;2022-11-15T08:33:01;99781.88;;;14.59;100.00
34925;BME280;21130;51.728;8.748;2022-11-15T08:35:28;99790.44;;;15.12;100.00
34925;BME280;21130;51.728;8.748;2022-11-15T08:37:55;99795.47;;;15.40;100.00
34925;BME280;21130;51.728;8.748;2022-11-15T08:40:23;99791.63;;;15.60;100.00
34925;BME280;21130;51.728;8.748;2022-11-15T08:42:49;99784.72;;;16.05;100.00
34925;BME280;21130;51.728;8.748;2022-11-15T08:45:16;99790.84;;;16.50;100.00
34925;BME280;21130;51.728;8.748;2022-11-15T08:47:43;99786.75;;;16.61;100.00
34925;BME280;21130;51.728;8.748;2022-11-15T08:50:10;99793.03;;;16.72;100.00
34925;BME280;21130;51.728;8.748;2022-11-15T08:52:37;99789.84;;;16.41;100.00
34925;BME280;21130;51.728;8.748;2022-11-15T08:55:04;99786.97;;;15.55;100.00
34925;BME280;21130;51.728;8.748;2022-11-15T08:57:32;99786.03;;;15.01;100.00
34925;BME280;21130;51.728;8.748;2022-11-15T09:00:00;99795.56;;;13.96;100.00
34925;BME280;21130;51.728;8.748;2022-11-15T09:02:27;99797.09;;;13.57;100.00
34925;BME280;21130;51.728;8.748;2022-11-15T09:04:53;99801.84;;;14.32;100.00
34925;BME280;21130;51.728;8.748;2022-11-15T09:07:20;99784.69;;;14.54;100.00
34925;BME280;21130;51.728;8.748;2022-11-15T09:09:47;99791.16;;;14.50;100.00
34925;BME280;21130;51.728;8.748;2022-11-15T09:12:13;99784.56;;;15.43;100.00
34925;BME280;21130;51.728;8.748;2022-11-15T09:14:41;99781.25;;;16.13;100.00
34925;BME280;21130;51.728;8.748;2022-11-15T09:17:08;99777.66;;;16.70;100.00
34925;BME280;21130;51.728;8.748;2022-11-15T09:19:35;99779.59;;;17.26;100.00
34925;BME280;21130;51.728;8.748;2022-11-15T09:22:05;99781.06;;;17.37;100.00
34925;BME280;21130;51.728;8.748;2022-11-15T09:24:32;99773.47;;;18.12;95.93
34925;BME280;21130;51.728;8.748;2022-11-15T09:26:58;99776.91;;;18.09;94.02
34925;BME280;21130;51.728;8.748;2022-11-15T09:29:25;99776.09;;;18.59;90.22
34925;BME280;21130;51.728;8.748;2022-11-15T09:31:54;99774.53;;;18.66;87.72
34925;BME280;21130;51.728;8.748;2022-11-15T09:34:20;99771.63;;;19.16;83.64
34925;BME280;21130;51.728;8.748;2022-11-15T09:36:47;99770.44;;;19.40;79.41
34925;BME280;21130;51.728;8.748;2022-11-15T09:39:14;99773.31;;;18.45;84.87
34925;BME280;21130;51.728;8.748;2022-11-15T09:41:51;99782.94;;;17.88;91.52
34925;BME280;21130;51.728;8.748;2022-11-15T09:44:32;99766.09;;;18.16;91.74
34925;BME280;21130;51.728;8.748;2022-11-15T09:47:13;99771.16;;;18.28;85.78
34925;BME280;21130;51.728;8.748;2022-11-15T09:49:45;99778.41;;;17.60;85.40
34925;BME280;21130;51.728;8.748;2022-11-15T09:52:13;99774.91;;;17.96;84.67
34925;BME280;21130;51.728;8.748;2022-11-15T09:54:43;99769.72;;;17.89;85.56
34925;BME280;21130;51.728;8.748;2022-11-15T09:57:13;99764.16;;;17.10;87.20
34925;BME280;21130;51.728;8.748;2022-11-15T09:59:49;99755.22;;;17.08;93.12
34925;BME280;21130;51.728;8.748;2022-11-15T10:02:33;99763.25;;;16.95;91.58
34925;BME280;21130;51.728;8.748;2022-11-15T10:05:07;99755.72;;;16.39;91.42
34925;BME280;21130;51.728;8.748;2022-11-15T10:07:40;99748.00;;;16.69;90.82
34925;BME280;21130;51.728;8.748;2022-11-15T10:10:17;99750.63;;;16.60;90.96
34925;BME280;21130;51.728;8.748;2022-11-15T10:12:48;99744.44;;;16.82;87.91
34925;BME280;21130;51.728;8.748;2022-11-15T10:15:18;99749.66;;;16.89;86.41
34925;BME280;21130;51.728;8.748;2022-11-15T10:18:13;99746.72;;;17.13;83.79
34925;BME280;21130;51.728;8.748;2022-11-15T10:20:46;99725.09;;;16.99;83.52
34925;BME280;21130;51.728;8.748;2022-11-15T10:23:16;99725.88;;;16.86;80.85
34925;BME280;21130;51.728;8.748;2022-11-15T10:25:43;99727.69;;;16.77;81.75
34925;BME280;21130;51.728;8.748;2022-11-15T10:28:14;99725.19;;;16.75;85.06
34925;BME280;21130;51.728;8.748;2022-11-15T10:30:43;99725.19;;;16.75;84.48
34925;BME280;21130;51.728;8.748;2022-11-15T10:33:25;99721.63;;;16.70;83.46
34925;BME280;21130;51.728;8.748;2022-11-15T10:36:16;99714.00;;;16.37;86.71
34925;BME280;21130;51.728;8.748;2022-11-15T10:38:56;99710.72;;;15.92;88.61
34925;BME280;21130;51.728;8.748;2022-11-15T10:41:30;99702.09;;;15.89;88.61
34925;BME280;21130;51.728;8.748;2022-11-15T10:44:10;99698.81;;;15.82;92.62
34925;BME280;21130;51.728;8.748;2022-11-15T10:46:40;99692.41;;;15.81;93.88
34925;BME280;21130;51.728;8.748;2022-11-15T10:49:15;99687.31;;;15.59;94.88
34925;BME280;21130;51.728;8.748;2022-11-15T10:51:45;99683.06;;;15.43;95.95
34925;BME280;21130;51.728;8.748;2022-11-15T10:54:16;99679.47;;;15.13;97.10
34925;BME280;21130;51.728;8.748;2022-11-15T10:56:49;99673.03;;;14.83;99.15
34925;BME280;21130;51.728;8.748;2022-11-15T10:59:22;99669.38;;;14.54;100.00
34925;BME280;21130;51.728;8.748;2022-11-15T11:01:50;99665.44;;;14.60;100.00
34925;BME280;21130;51.728;8.748;2022-11-15T11:04:18;99669.38;;;14.54;100.00
34925;BME280;21130;51.728;8.748;2022-11-15T11:06:49;99666.22;;;14.65;100.00
34925;BME280;21130;51.728;8.748;2022-11-15T11:09:29;99659.03;;;14.88;100.00
34925;BME280;21130;51.728;8.748;2022-11-15T11:11:56;99662.47;;;14.80;100.00
34925;BME280;21130;51.728;8.748;2022-11-15T11:14:24;99660.00;;;14.74;100.00
34925;BME280;21130;51.728;8.748;2022-11-15T11:16:54;99658.38;;;14.97;100.00
34925;BME280;21130;51.728;8.748;2022-11-15T11:19:43;99661.28;;;15.16;100.00
34925;BME280;21130;51.728;8.748;2022-11-15T11:22:19;99648.25;;;15.78;98.41
34925;BME280;21130;51.728;8.748;2022-11-15T11:24:56;99649.53;;;15.86;92.13
34925;BME280;21130;51.728;8.748;2022-11-15T11:27:41;99644.47;;;15.88;90.79
34925;BME280;21130;51.728;8.748;2022-11-15T11:30:14;99641.22;;;15.56;93.95
34925;BME280;21130;51.728;8.748;2022-11-15T11:33:05;99648.13;;;15.16;98.15
34925;BME280;21130;51.728;8.748;2022-11-15T11:35:49;99635.03;;;15.11;99.38
34925;BME280;21130;51.728;8.748;2022-11-15T11:38:37;99635.47;;;15.00;100.00
34925;BME280;21130;51.728;8.748;2022-11-15T11:41:13;99627.25;;;14.79;100.00
34925;BME280;21130;51.728;8.748;2022-11-15T11:43:51;99631.41;;;14.53;100.00
34925;BME280;21130;51.728;8.748;2022-11-15T11:46:32;99612.63;;;14.63;100.00
34925;BME280;21130;51.728;8.748;2022-11-15T11:49:08;99615.47;;;14.58;100.00
34925;BME280;21130;51.728;8.748;2022-11-15T11:51:42;99607.38;;;14.86;100.00
34925;BME280;21130;51.728;8.748;2022-11-15T11:54:14;99606.91;;;15.27;100.00
34925;BME280;21130;51.728;8.748;2022-11-15T11:56:53;99595.53;;;15.42;100.00
34925;BME280;21130;51.728;8.748;2022-11-15T11:59:33;99596.44;;;15.81;100.00
34925;BME280;21130;51.728;8.748;2022-11-15T12:02:14;99587.03;;;16.28;100.00
34925;BME280;21130;51.728;8.748;2022-11-15T12:04:45;99576.34;;;16.77;100.00
34925;BME280;21130;51.728;8.748;2022-11-15T12:07:21;99570.00;;;17.04;100.00
34925;BME280;21130;51.728;8.748;2022-11-15T12:09:53;99571.84;;;17.22;96.94
34925;BME280;21130;51.728;8.748;2022-11-15T12:12:29;99576.00;;;17.25;93.74
34925;BME280;21130;51.728;8.748;2022-11-15T12:15:00;99574.91;;;16.66;96.50
34925;BME280;21130;51.728;8.748;2022-11-15T12:17:30;99565.28;;;16.39;97.63
34925;BME280;21130;51.728;8.748;2022-11-15T12:19:58;99562.38;;;16.44;100.00
34925;BME280;21130;51.728;8.748;2022-11-15T12:22:34;99565.63;;;16.51;100.00
34925;BME280;21130;51.728;8.748;2022-11-15T12:25:08;99565.53;;;16.70;98.36
34925;BME280;21130;51.728;8.748;2022-11-15T12:28:00;99555.13;;;16.43;94.17
34925;BME280;21130;51.728;8.748;2022-11-15T12:30:42;99568.28;;;16.42;94.16
34925;BME280;21130;51.728;8.748;2022-11-15T12:33:32;99567.91;;;16.16;96.59
34925;BME280;21130;51.728;8.748;2022-11-15T12:36:01;99571.34;;;15.75;98.88
34925;BME280;21130;51.728;8.748;2022-11-15T12:38:53;99571.78;;;15.40;100.00
34925;BME280;21130;51.728;8.748;2022-11-15T12:41:22;99574.66;;;15.34;100.00
34925;BME280;21130;51.728;8.748;2022-11-15T12:43:49;99574.66;;;15.34;100.00
34925;BME280;21130;51.728;8.748;2022-11-15T12:46:21;99567.69;;;15.32;100.00
34925;BME280;21130;51.728;8.748;2022-11-15T12:48:56;99564.34;;;15.54;100.00
34925;BME280;21130;51.728;8.748;2022-11-15T12:55:00;99552.97;;;15.26;100.00
34925;BME280;21130;51.728;8.748;2022-11-15T12:57:45;99550.00;;;15.18;100.00
34925;BME280;21130;51.728;8.748;2022-11-15T13:00:42;99538.97;;;14.83;100.00
34925;BME280;21130;51.728;8.748;2022-11-15T13:03:36;99541.53;;;14.80;100.00
34925;BME280;21130;51.728;8.748;2022-11-15T13:06:39;99530.81;;;14.63;100.00
34925;BME280;21130;51.728;8.748;2022-11-15T13:12:08;99534.78;;;14.81;100.00
34925;BME280;21130;51.728;8.748;2022-11-15T13:14:50;99537.00;;;14.84;100.00
34925;BME280;21130;51.728;8.748;2022-11-15T13:17:29;99532.88;;;14.76;100.00
34925;BME280;21130;51.728;8.748;2022-11-15T13:20:00;99526.34;;;14.62;100.00
34925;BME280;21130;51.728;8.748;2022-11-15T13:22:38;99519.69;;;14.58;100.00
34925;BME280;21130;51.728;8.748;2022-11-15T13:28:12;99525.28;;;14.58;100.00
34925;BME280;21130;51.728;8.748;2022-11-15T13:30:49;99516.38;;;14.51;100.00
34925;BME280;21130;51.728;8.748;2022-11-15T13:33:18;99511.75;;;14.41;100.00
34925;BME280;21130;51.728;8.748;2022-11-15T13:35:47;99507.28;;;14.40;100.00